sensor_id;sensor_type;location;lat;lon;timestamp;pressure;altitude;pressure_sealevel;temperature;humidity
64889;BME280;51386;53.082;8.816;2023-03-14T00:01:38;98776.56;;;15.92;56.54
64889;BME280;51386;53.082;8.816;2023-03-14T00:04:05;98776.84;;;16.00;56.32
64889;BME280;51386;53.082;8.816;2023-03-14T00:06:32;98772.09;;;16.02;56.31
64889;BME280;51386;53.082;8.816;2023-03-14T00:09:01;98761.47;;;16.02;56.06
64889;BME280;51386;53.082;8.816;2023-03-14T00:11:28;98758.28;;;16.00;55.85
64889;BME280;51386;53.082;8.816;2023-03-14T00:13:56;98746.63;;;16.01;56.11
64889;BME280;51386;53.082;8.816;2023-03-14T00:16:23;98746.34;;;16.03;55.93
64889;BME280;51386;53.082;8.816;2023-03-14T00:18:52;98749.78;;;15.98;55.88
64889;BME280;51386;53.082;8.816;2023-03-14T00:21:19;98754.56;;;15.96;55.94
64889;BME280;51386;53.082;8.816;2023-03-14T00:23:46;98751.91;;;15.96;56.20
64889;BME280;51386;53.082;8.816;2023-03-14T00:26:16;98747.63;;;15.95;55.63
64889;BME280;51386;53.082;8.816;2023-03-14T00:28:44;98745.78;;;15.96;55.71
64889;BME280;51386;53.082;8.816;2023-03-14T00:31:14;98747.66;;;16.00;55.84
64889;BME280;51386;53.082;8.816;2023-03-14T00:33:43;98741.03;;;16.03;55.47
64889;BME280;51386;53.082;8.816;2023-03-14T00:36:14;98749.28;;;16.01;55.21
64889;BME280;51386;53.082;8.816;2023-03-14T00:38:44;98748.47;;;16.01;55.55
64889;BME280;51386;53.082;8.816;2023-03-14T00:41:14;98762.25;;;15.98;55.68
64889;BME280;51386;53.082;8.816;2023-03-14T00:43:41;98761.97;;;15.94;55.90
64889;BME280;51386;53.082;8.816;2023-03-14T00:46:08;98766.75;;;15.92;56.20
64889;BME280;51386;53.082;8.816;2023-03-14T00:48:35;98772.06;;;15.92;56.23
64889;BME280;51386;53.082;8.816;2023-03-14T00:51:04;98775.75;;;15.91;56.52
64889;BME280;51386;53.082;8.816;2023-03-14T00:53:36;98757.44;;;15.90;55.97
64889;BME280;51386;53.082;8.816;2023-03-14T00:56:05;98733.81;;;15.88;56.50
64889;BME280;51386;53.082;8.816;2023-03-14T00:58:33;98739.13;;;15.88;56.72
64889;BME280;51386;53.082;8.816;2023-03-14T01:01:06;98748.66;;;15.84;56.83
64889;BME280;51386;53.082;8.816;2023-03-14T01:03:33;98752.63;;;15.82;57.22
64889;BME280;51386;53.082;8.816;2023-03-14T01:06:09;98730.03;;;15.74;57.59
64889;BME280;51386;53.082;8.816;2023-03-14T01:08:37;98722.03;;;15.69;57.59
64889;BME280;51386;53.082;8.816;2023-03-14T01:11:07;98723.66;;;15.70;57.74
64889;BME280;51386;53.082;8.816;2023-03-14T01:13:35;98710.38;;;15.70;57.95
64889;BME280;51386;53.082;8.816;2023-03-14T01:16:04;98694.47;;;15.70;58.14
64889;BME280;51386;53.082;8.816;2023-03-14T01:18:32;98683.84;;;15.70;58.24
64889;BME280;51386;53.082;8.816;2023-03-14T01:21:00;98688.09;;;15.66;58.38
64889;BME280;51386;53.082;8.816;2023-03-14T01:23:27;98662.63;;;15.70;57.99
64889;BME280;51386;53.082;8.816;2023-03-14T01:25:55;98653.63;;;15.71;58.27
64889;BME280;51386;53.082;8.816;2023-03-14T01:28:22;98658.94;;;15.71;58.59
64889;BME280;51386;53.082;8.816;2023-03-14T01:30:49;98669.00;;;15.69;58.63
64889;BME280;51386;53.082;8.816;2023-03-14T01:33:16;98669.00;;;15.64;58.63
64889;BME280;51386;53.082;8.816;2023-03-14T01:35:43;98661.31;;;15.68;58.92
64889;BME280;51386;53.082;8.816;2023-03-14T01:38:10;98664.75;;;15.68;58.93
64889;BME280;51386;53.082;8.816;2023-03-14T01:40:42;98661.84;;;15.70;58.59
64889;BME280;51386;53.082;8.816;2023-03-14T01:43:17;98645.13;;;15.74;58.75
64889;BME280;51386;53.082;8.816;2023-03-14T01:46:25;98637.19;;;15.74;58.55
64889;BME280;51386;53.082;8.816;2023-03-14T01:49:05;98634.81;;;15.73;58.90
64889;BME280;51386;53.082;8.816;2023-03-14T01:51:42;98635.59;;;15.73;58.46
64889;BME280;51386;53.082;8.816;2023-03-14T01:54:17;98625.56;;;15.80;58.71
64889;BME280;51386;53.082;8.816;2023-03-14T01:56:50;98620.50;;;15.84;58.50
64889;BME280;51386;53.082;8.816;2023-03-14T01:59:21;98620.25;;;15.90;58.46
64889;BME280;51386;53.082;8.816;2023-03-14T02:01:50;98614.94;;;15.90;58.28
64889;BME280;51386;53.082;8.816;2023-03-14T02:04:20;98618.69;;;15.89;58.24
64889;BME280;51386;53.082;8.816;2023-03-14T02:06:53;98629.81;;;15.86;58.26
64889;BME280;51386;53.082;8.816;2023-03-14T02:09:23;98629.53;;;15.83;58.50
64889;BME280;51386;53.082;8.816;2023-03-14T02:11:51;98639.34;;;15.82;58.57
64889;BME280;51386;53.082;8.816;2023-03-14T02:14:30;98636.13;;;15.75;58.78
64889;BME280;51386;53.082;8.816;2023-03-14T02:16:58;98640.91;;;15.83;58.38
64889;BME280;51386;53.082;8.816;2023-03-14T02:19:43;98633.75;;;15.79;58.66
64889;BME280;51386;53.082;8.816;2023-03-14T02:22:15;98639.84;;;15.79;58.69
64889;BME280;51386;53.082;8.816;2023-03-14T02:24:49;98639.31;;;15.77;58.61
64889;BME280;51386;53.082;8.816;2023-03-14T02:27:23;98649.38;;;15.70;58.68
64889;BME280;51386;53.082;8.816;2023-03-14T02:29:53;98663.13;;;15.62;59.07
64889;BME280;51386;53.082;8.816;2023-03-14T02:32:23;98660.25;;;15.69;58.80
64889;BME280;51386;53.082;8.816;2023-03-14T02:34:55;98646.72;;;15.70;58.81
64889;BME280;51386;53.082;8.816;2023-03-14T02:37:37;98649.88;;;15.67;58.69
64889;BME280;51386;53.082;8.816;2023-03-14T02:40:07;98650.97;;;15.71;58.46
64889;BME280;51386;53.082;8.816;2023-03-14T02:42:35;98648.88;;;15.78;58.35
64889;BME280;51386;53.082;8.816;2023-03-14T02:45:39;98643.03;;;15.81;58.22
64889;BME280;51386;53.082;8.816;2023-03-14T02:48:14;98643.59;;;15.88;57.84
64889;BME280;51386;53.082;8.816;2023-03-14T02:50:43;98639.91;;;15.89;57.96
64889;BME280;51386;53.082;8.816;2023-03-14T02:53:15;98631.97;;;15.94;57.48
64889;BME280;51386;53.082;8.816;2023-03-14T02:55:46;98643.63;;;15.93;57.71
64889;BME280;51386;53.082;8.816;2023-03-14T02:58:15;98644.69;;;16.02;57.50
64889;BME280;51386;53.082;8.816;2023-03-14T03:00:42;98629.03;;;15.96;57.36
64889;BME280;51386;53.082;8.816;2023-03-14T03:03:09;98639.94;;;15.99;57.82
64889;BME280;51386;53.082;8.816;2023-03-14T03:05:36;98621.91;;;16.01;57.18
64889;BME280;51386;53.082;8.816;2023-03-14T03:08:04;98637.81;;;16.01;57.21
64889;BME280;51386;53.082;8.816;2023-03-14T03:10:32;98625.63;;;16.10;56.72
64889;BME280;51386;53.082;8.816;2023-03-14T03:12:59;98617.41;;;16.22;56.51
64889;BME280;51386;53.082;8.816;2023-03-14T03:15:27;98615.28;;;16.14;56.46
64889;BME280;51386;53.082;8.816;2023-03-14T03:17:54;98619.25;;;16.16;56.37
64889;BME280;51386;53.082;8.816;2023-03-14T03:20:21;98616.63;;;16.11;56.36
64889;BME280;51386;53.082;8.816;2023-03-14T03:22:48;98610.75;;;16.09;56.31
64889;BME280;51386;53.082;8.816;2023-03-14T03:25:17;98607.31;;;16.19;55.98
64889;BME280;51386;53.082;8.816;2023-03-14T03:27:44;98607.63;;;16.27;55.68
64889;BME280;51386;53.082;8.816;2023-03-14T03:30:12;98605.22;;;16.21;55.91
64889;BME280;51386;53.082;8.816;2023-03-14T03:32:40;98606.00;;;16.32;55.58
64889;BME280;51386;53.082;8.816;2023-03-14T03:35:08;98610.25;;;16.27;55.86
64889;BME280;51386;53.082;8.816;2023-03-14T03:37:36;98598.03;;;16.26;56.50
64889;BME280;51386;53.082;8.816;2023-03-14T03:40:04;98607.88;;;16.16;57.48
64889;BME280;51386;53.082;8.816;2023-03-14T03:42:34;98605.44;;;16.14;56.90
64889;BME280;51386;53.082;8.816;2023-03-14T03:45:03;98594.81;;;16.09;57.59
64889;BME280;51386;53.082;8.816;2023-03-14T03:47:31;98606.22;;;16.00;58.09
64889;BME280;51386;53.082;8.816;2023-03-14T03:49:59;98607.00;;;15.95;58.20
64889;BME280;51386;53.082;8.816;2023-03-14T03:52:26;98597.44;;;15.89;58.28
64889;BME280;51386;53.082;8.816;2023-03-14T03:54:53;98596.38;;;15.85;58.36
64889;BME280;51386;53.082;8.816;2023-03-14T03:57:20;98590.53;;;15.83;58.62
64889;BME280;51386;53.082;8.816;2023-03-14T03:59:47;98595.31;;;15.86;58.46
64889;BME280;51386;53.082;8.816;2023-03-14T04:02:14;98592.16;;;15.89;58.51
64889;BME280;51386;53.082;8.816;2023-03-14T04:04:41;98586.84;;;15.89;58.35
64889;BME280;51386;53.082;8.816;2023-03-14T04:07:10;98586.31;;;15.92;58.08
64889;BME280;51386;53.082;8.816;2023-03-14T04:09:37;98590.53;;;15.88;58.00
64889;BME280;51386;53.082;8.816;2023-03-14T04:12:05;98595.84;;;15.88;57.58
64889;BME280;51386;53.082;8.816;2023-03-14T04:14:32;98596.38;;;15.85;57.63
64889;BME280;51386;53.082;8.816;2023-03-14T04:16:59;98597.97;;;15.91;57.48
64889;BME280;51386;53.082;8.816;2023-03-14T04:19:26;98595.31;;;15.91;57.29
64889;BME280;51386;53.082;8.816;2023-03-14T04:21:53;98593.72;;;15.90;57.22
64889;BME280;51386;53.082;8.816;2023-03-14T04:24:21;98594.53;;;15.96;57.02
64889;BME280;51386;53.082;8.816;2023-03-14T04:26:48;98585.78;;;15.95;57.07
64889;BME280;51386;53.082;8.816;2023-03-14T04:29:21;98582.88;;;15.92;57.28
64889;BME280;51386;53.082;8.816;2023-03-14T04:31:48;98586.59;;;15.96;57.32
64889;BME280;51386;53.082;8.816;2023-03-14T04:34:15;98579.16;;;15.98;56.76
64889;BME280;51386;53.082;8.816;2023-03-14T04:36:42;98581.56;;;15.99;56.92
64889;BME280;51386;53.082;8.816;2023-03-14T04:39:14;98585.00;;;15.95;56.86
64889;BME280;51386;53.082;8.816;2023-03-14T04:41:44;98574.63;;;15.88;57.38
64889;BME280;51386;53.082;8.816;2023-03-14T04:44:12;98575.16;;;15.80;57.72
64889;BME280;51386;53.082;8.816;2023-03-14T04:46:39;98572.94;;;15.62;58.24
64889;BME280;51386;53.082;8.816;2023-03-14T04:49:06;98573.25;;;15.71;58.07
64889;BME280;51386;53.082;8.816;2023-03-14T04:51:33;98577.75;;;15.70;58.03
64889;BME280;51386;53.082;8.816;2023-03-14T04:54:00;98576.19;;;15.79;57.88
64889;BME280;51386;53.082;8.816;2023-03-14T04:56:27;98568.75;;;15.81;57.51
64889;BME280;51386;53.082;8.816;2023-03-14T04:58:55;98568.53;;;15.83;57.68
64889;BME280;51386;53.082;8.816;2023-03-14T05:01:22;98575.16;;;15.80;57.43
64889;BME280;51386;53.082;8.816;2023-03-14T05:03:50;98576.75;;;15.86;57.33
64889;BME280;51386;53.082;8.816;2023-03-14T05:06:17;98578.59;;;15.91;57.00
64889;BME280;51386;53.082;8.816;2023-03-14T05:08:44;98585.78;;;15.95;56.75
64889;BME280;51386;53.082;8.816;2023-03-14T05:11:11;98598.53;;;15.98;57.09
64889;BME280;51386;53.082;8.816;2023-03-14T05:13:39;98595.88;;;15.98;56.58
64889;BME280;51386;53.082;8.816;2023-03-14T05:16:10;98583.94;;;15.96;56.60
64889;BME280;51386;53.082;8.816;2023-03-14T05:18:38;98576.47;;;15.93;55.96
64889;BME280;51386;53.082;8.816;2023-03-14T05:21:05;98585.22;;;15.88;55.69
64889;BME280;51386;53.082;8.816;2023-03-14T05:23:32;98588.97;;;15.87;55.62
64889;BME280;51386;53.082;8.816;2023-03-14T05:25:59;98581.00;;;15.87;55.47
64889;BME280;51386;53.082;8.816;2023-03-14T05:28:26;98587.34;;;15.86;54.92
64889;BME280;51386;53.082;8.816;2023-03-14T05:30:53;98591.09;;;15.85;54.98
64889;BME280;51386;53.082;8.816;2023-03-14T05:33:22;98578.06;;;15.84;54.38
64889;BME280;51386;53.082;8.816;2023-03-14T05:35:49;98570.88;;;15.79;54.26
64889;BME280;51386;53.082;8.816;2023-03-14T05:38:16;98562.41;;;15.77;54.18
64889;BME280;51386;53.082;8.816;2023-03-14T05:40:44;98557.06;;;15.72;53.89
64889;BME280;51386;53.082;8.816;2023-03-14T05:43:11;98559.47;;;15.69;54.15
64889;BME280;51386;53.082;8.816;2023-03-14T05:45:38;98560.78;;;15.66;54.07
64889;BME280;51386;53.082;8.816;2023-03-14T05:48:05;98552.28;;;15.64;54.06
64889;BME280;51386;53.082;8.816;2023-03-14T05:50:34;98557.03;;;15.62;53.81
64889;BME280;51386;53.082;8.816;2023-03-14T05:53:01;98555.44;;;15.56;53.89
64889;BME280;51386;53.082;8.816;2023-03-14T05:55:28;98561.00;;;15.59;54.23
64889;BME280;51386;53.082;8.816;2023-03-14T05:57:55;98563.16;;;15.63;53.86
64889;BME280;51386;53.082;8.816;2023-03-14T06:00:22;98570.31;;;15.67;54.07
64889;BME280;51386;53.082;8.816;2023-03-14T06:02:49;98567.63;;;15.57;54.61
64889;BME280;51386;53.082;8.816;2023-03-14T06:05:16;98568.22;;;15.64;54.41
64889;BME280;51386;53.082;8.816;2023-03-14T06:07:44;98563.47;;;15.71;54.08
64889;BME280;51386;53.082;8.816;2023-03-14T06:10:11;98564.53;;;15.75;54.07
64889;BME280;51386;53.082;8.816;2023-03-14T06:12:39;98558.66;;;15.68;53.53
64889;BME280;51386;53.082;8.816;2023-03-14T06:15:07;98570.88;;;15.74;53.36
64889;BME280;51386;53.082;8.816;2023-03-14T06:17:34;98571.41;;;15.76;53.02
64889;BME280;51386;53.082;8.816;2023-03-14T06:20:01;98562.41;;;15.82;53.15
64889;BME280;51386;53.082;8.816;2023-03-14T06:22:29;98561.88;;;15.90;52.92
64889;BME280;51386;53.082;8.816;2023-03-14T06:24:57;98566.16;;;15.96;52.12
64889;BME280;51386;53.082;8.816;2023-03-14T06:27:24;98569.63;;;16.02;52.44
64889;BME280;51386;53.082;8.816;2023-03-14T06:29:51;98574.66;;;16.03;52.60
64889;BME280;51386;53.082;8.816;2023-03-14T06:32:18;98579.47;;;16.11;52.06
64889;BME280;51386;53.082;8.816;2023-03-14T06:34:45;98577.34;;;16.18;52.39
64889;BME280;51386;53.082;8.816;2023-03-14T06:37:12;98581.59;;;16.24;51.96
64889;BME280;51386;53.082;8.816;2023-03-14T06:39:39;98583.19;;;16.20;51.93
64889;BME280;51386;53.082;8.816;2023-03-14T06:42:08;98580.00;;;16.18;52.11
64889;BME280;51386;53.082;8.816;2023-03-14T06:44:35;98578.91;;;16.19;51.99
64889;BME280;51386;53.082;8.816;2023-03-14T06:47:02;98580.53;;;16.15;52.34
64889;BME280;51386;53.082;8.816;2023-03-14T06:49:29;98566.69;;;16.03;52.33
64889;BME280;51386;53.082;8.816;2023-03-14T06:51:56;98576.75;;;15.91;52.65
64889;BME280;51386;53.082;8.816;2023-03-14T06:54:23;98574.38;;;15.95;52.64
64889;BME280;51386;53.082;8.816;2023-03-14T06:56:50;98579.16;;;15.98;52.78
64889;BME280;51386;53.082;8.816;2023-03-14T06:59:18;98584.22;;;15.99;53.10
64889;BME280;51386;53.082;8.816;2023-03-14T07:01:45;98581.53;;;15.89;53.60
64889;BME280;51386;53.082;8.816;2023-03-14T07:04:12;98585.78;;;15.85;53.72
64889;BME280;51386;53.082;8.816;2023-03-14T07:06:39;98588.97;;;15.87;53.63
64889;BME280;51386;53.082;8.816;2023-03-14T07:09:11;98592.41;;;15.93;53.81
64889;BME280;51386;53.082;8.816;2023-03-14T07:11:38;98593.22;;;16.03;53.53
64889;BME280;51386;53.082;8.816;2023-03-14T07:14:05;98590.06;;;16.11;53.78
64889;BME280;51386;53.082;8.816;2023-03-14T07:16:33;98592.72;;;16.11;53.65
64889;BME280;51386;53.082;8.816;2023-03-14T07:19:01;98587.94;;;16.13;53.48
64889;BME280;51386;53.082;8.816;2023-03-14T07:21:29;98589.81;;;16.13;53.30
64889;BME280;51386;53.082;8.816;2023-03-14T07:23:56;98589.53;;;16.14;53.55
64889;BME280;51386;53.082;8.816;2023-03-14T07:26:23;98602.28;;;16.22;53.67
64889;BME280;51386;53.082;8.816;2023-03-14T07:28:50;98589.53;;;16.24;53.50
64889;BME280;51386;53.082;8.816;2023-03-14T07:31:17;98599.09;;;16.15;53.66
64889;BME280;51386;53.082;8.816;2023-03-14T07:33:46;98599.13;;;16.20;53.79
64889;BME280;51386;53.082;8.816;2023-03-14T07:36:13;98593.28;;;16.34;53.35
64889;BME280;51386;53.082;8.816;2023-03-14T07:38:40;98601.25;;;16.49;53.22
64889;BME280;51386;53.082;8.816;2023-03-14T07:41:07;98606.31;;;16.55;52.87
64889;BME280;51386;53.082;8.816;2023-03-14T07:43:34;98600.75;;;16.77;53.06
64889;BME280;51386;53.082;8.816;2023-03-14T07:46:01;98590.63;;;16.99;52.05
64889;BME280;51386;53.082;8.816;2023-03-14T07:48:29;98595.88;;;17.19;51.56
64889;BME280;51386;53.082;8.816;2023-03-14T07:50:57;98597.97;;;17.37;50.94
64889;BME280;51386;53.082;8.816;2023-03-14T07:53:24;98594.19;;;17.58;50.69
64889;BME280;51386;53.082;8.816;2023-03-14T07:55:52;98601.59;;;17.67;50.01
64889;BME280;51386;53.082;8.816;2023-03-14T07:58:21;98600.00;;;17.71;49.78
64889;BME280;51386;53.082;8.816;2023-03-14T08:00:49;98594.66;;;17.76;49.39
64889;BME280;51386;53.082;8.816;2023-03-14T08:03:16;98603.19;;;17.68;49.31
64889;BME280;51386;53.082;8.816;2023-03-14T08:05:45;98601.59;;;17.67;49.15
64889;BME280;51386;53.082;8.816;2023-03-14T08:08:14;98603.22;;;17.63;49.07
64889;BME280;51386;53.082;8.816;2023-03-14T08:10:42;98606.19;;;17.56;49.41
64889;BME280;51386;53.082;8.816;2023-03-14T08:13:09;98603.22;;;17.47;49.48
64889;BME280;51386;53.082;8.816;2023-03-14T08:15:37;98608.03;;;17.45;49.61
64889;BME280;51386;53.082;8.816;2023-03-14T08:18:05;98603.00;;;17.44;49.57
64889;BME280;51386;53.082;8.816;2023-03-14T08:20:32;98596.34;;;17.41;49.71
64889;BME280;51386;53.082;8.816;2023-03-14T08:23:00;98600.88;;;17.41;49.79
64889;BME280;51386;53.082;8.816;2023-03-14T08:25:29;98609.38;;;17.43;49.86
64889;BME280;51386;53.082;8.816;2023-03-14T08:27:56;98609.38;;;17.38;49.64
64889;BME280;51386;53.082;8.816;2023-03-14T08:30:24;98596.16;;;17.23;49.25
64889;BME280;51386;53.082;8.816;2023-03-14T08:32:51;98601.75;;;17.16;49.63
64889;BME280;51386;53.082;8.816;2023-03-14T08:35:19;98603.91;;;17.04;49.75
64889;BME280;51386;53.082;8.816;2023-03-14T08:37:46;98607.09;;;17.06;49.65
64889;BME280;51386;53.082;8.816;2023-03-14T08:40:14;98631.81;;;17.02;49.87
64889;BME280;51386;53.082;8.816;2023-03-14T08:42:44;98621.47;;;16.75;52.15
64889;BME280;51386;53.082;8.816;2023-03-14T08:45:14;98620.94;;;16.58;52.67
64889;BME280;51386;53.082;8.816;2023-03-14T08:47:43;98631.53;;;16.38;53.54
64889;BME280;51386;53.082;8.816;2023-03-14T08:50:11;98620.06;;;16.17;54.50
64889;BME280;51386;53.082;8.816;2023-03-14T08:52:42;98632.47;;;15.91;55.19
64889;BME280;51386;53.082;8.816;2023-03-14T08:55:10;98630.34;;;15.93;55.07
64889;BME280;51386;53.082;8.816;2023-03-14T08:57:38;98629.31;;;15.94;55.37
64889;BME280;51386;53.082;8.816;2023-03-14T09:00:09;98634.59;;;15.89;55.15
64889;BME280;51386;53.082;8.816;2023-03-14T09:02:39;98635.13;;;15.91;54.92
64889;BME280;51386;53.082;8.816;2023-03-14T09:05:07;98629.56;;;15.98;55.00
64889;BME280;51386;53.082;8.816;2023-03-14T09:07:34;98638.34;;;16.03;55.03
64889;BME280;51386;53.082;8.816;2023-03-14T09:10:02;98639.41;;;16.07;55.27
64889;BME280;51386;53.082;8.816;2023-03-14T09:12:29;98667.03;;;16.11;54.76
64889;BME280;51386;53.082;8.816;2023-03-14T09:14:57;98730.19;;;16.09;55.16
64889;BME280;51386;53.082;8.816;2023-03-14T09:17:25;98758.28;;;16.00;54.13
64889;BME280;51386;53.082;8.816;2023-03-14T09:19:52;98745.44;;;15.77;52.95
64889;BME280;51386;53.082;8.816;2023-03-14T09:22:19;98767.59;;;15.56;52.96
64889;BME280;51386;53.082;8.816;2023-03-14T09:24:47;98773.81;;;15.40;52.74
64889;BME280;51386;53.082;8.816;2023-03-14T09:27:14;98785.84;;;15.21;52.53
64889;BME280;51386;53.082;8.816;2023-03-14T09:29:41;98805.81;;;15.02;52.22
64889;BME280;51386;53.082;8.816;2023-03-14T09:32:08;98807.69;;;14.79;52.21
64889;BME280;51386;53.082;8.816;2023-03-14T09:34:36;98826.53;;;14.56;52.04
64889;BME280;51386;53.082;8.816;2023-03-14T09:37:03;98831.56;;;14.36;52.51
64889;BME280;51386;53.082;8.816;2023-03-14T09:39:30;98844.56;;;14.21;52.52
64889;BME280;51386;53.082;8.816;2023-03-14T09:42:03;98853.28;;;14.00;52.25
64889;BME280;51386;53.082;8.816;2023-03-14T09:44:35;98852.50;;;13.83;52.35
64889;BME280;51386;53.082;8.816;2023-03-14T09:47:07;98870.28;;;13.71;52.88
64889;BME280;51386;53.082;8.816;2023-03-14T09:49:40;98879.09;;;13.60;53.23
64889;BME280;51386;53.082;8.816;2023-03-14T09:52:14;98879.25;;;13.53;53.37
64889;BME280;51386;53.082;8.816;2023-03-14T09:54:46;98914.13;;;13.38;52.29
64889;BME280;51386;53.082;8.816;2023-03-14T09:57:18;98925.94;;;13.19;51.91
64889;BME280;51386;53.082;8.816;2023-03-14T09:59:47;98944.03;;;12.99;52.17
64889;BME280;51386;53.082;8.816;2023-03-14T10:02:19;98945.31;;;12.85;52.51
64889;BME280;51386;53.082;8.816;2023-03-14T10:04:51;98966.69;;;12.72;52.96
64889;BME280;51386;53.082;8.816;2023-03-14T10:07:27;98973.84;;;12.60;52.55
64889;BME280;51386;53.082;8.816;2023-03-14T10:09:55;98987.50;;;12.45;51.95
64889;BME280;51386;53.082;8.816;2023-03-14T10:12:31;99001.13;;;12.31;52.56
64889;BME280;51386;53.082;8.816;2023-03-14T10:15:04;99003.06;;;12.23;53.72
64889;BME280;51386;53.082;8.816;2023-03-14T10:17:40;99015.56;;;12.16;53.21
64889;BME280;51386;53.082;8.816;2023-03-14T10:20:31;99036.28;;;12.01;52.80
64889;BME280;51386;53.082;8.816;2023-03-14T10:23:02;99037.06;;;11.90;51.84
64889;BME280;51386;53.082;8.816;2023-03-14T10:25:32;99057.31;;;11.78;52.46
64889;BME280;51386;53.082;8.816;2023-03-14T10:28:02;99064.94;;;11.68;52.72
64889;BME280;51386;53.082;8.816;2023-03-14T10:30:38;99072.09;;;11.61;52.52
64889;BME280;51386;53.082;8.816;2023-03-14T10:33:20;99082.72;;;11.54;53.22
64889;BME280;51386;53.082;8.816;2023-03-14T10:35:53;99083.72;;;11.53;53.66
64889;BME280;51386;53.082;8.816;2023-03-14T10:38:25;99106.00;;;11.57;54.04
64889;BME280;51386;53.082;8.816;2023-03-14T10:40:55;99125.81;;;11.60;53.61
64889;BME280;51386;53.082;8.816;2023-03-14T10:43:25;99133.59;;;11.55;52.89
64889;BME280;51386;53.082;8.816;2023-03-14T10:45:57;99140.88;;;11.53;53.83
64889;BME280;51386;53.082;8.816;2023-03-14T10:48:32;99150.13;;;11.62;54.60
64889;BME280;51386;53.082;8.816;2023-03-14T10:51:06;99157.38;;;11.67;53.87
64889;BME280;51386;53.082;8.816;2023-03-14T10:53:42;99163.28;;;12.16;53.18
64889;BME280;51386;53.082;8.816;2023-03-14T10:56:13;99171.13;;;12.05;53.21
64889;BME280;51386;53.082;8.816;2023-03-14T10:58:43;99164.59;;;12.07;53.34
64889;BME280;51386;53.082;8.816;2023-03-14T11:01:37;99168.94;;;12.02;52.37
64889;BME280;51386;53.082;8.816;2023-03-14T11:04:22;99168.06;;;11.90;52.51
64889;BME280;51386;53.082;8.816;2023-03-14T11:07:02;99177.22;;;11.87;52.31
64889;BME280;51386;53.082;8.816;2023-03-14T11:09:40;99178.63;;;11.90;52.66
64889;BME280;51386;53.082;8.816;2023-03-14T11:12:32;99180.59;;;11.94;52.72
64889;BME280;51386;53.082;8.816;2023-03-14T11:15:13;99202.84;;;11.98;52.35
64889;BME280;51386;53.082;8.816;2023-03-14T11:17:56;99213.75;;;12.02;52.66
64889;BME280;51386;53.082;8.816;2023-03-14T11:20:38;99226.50;;;12.05;52.16
64889;BME280;51386;53.082;8.816;2023-03-14T11:23:17;99227.19;;;12.00;51.48
64889;BME280;51386;53.082;8.816;2023-03-14T11:25:56;99243.44;;;11.97;51.73
64889;BME280;51386;53.082;8.816;2023-03-14T11:28:35;99248.28;;;12.00;51.92
64889;BME280;51386;53.082;8.816;2023-03-14T11:31:13;99252.66;;;12.06;51.84
64889;BME280;51386;53.082;8.816;2023-03-14T11:33:56;99259.03;;;12.17;51.72
64889;BME280;51386;53.082;8.816;2023-03-14T11:36:33;99252.31;;;12.33;52.14
64889;BME280;51386;53.082;8.816;2023-03-14T11:39:14;99271.66;;;12.45;51.65
64889;BME280;51386;53.082;8.816;2023-03-14T11:41:45;99283.28;;;12.55;51.21
64889;BME280;51386;53.082;8.816;2023-03-14T11:44:19;99281.97;;;12.64;51.46
64889;BME280;51386;53.082;8.816;2023-03-14T11:46:52;99290.78;;;12.88;51.62
64889;BME280;51386;53.082;8.816;2023-03-14T11:49:32;99296.28;;;13.16;50.72
64889;BME280;51386;53.082;8.816;2023-03-14T11:52:10;99293.41;;;13.41;50.08
64889;BME280;51386;53.082;8.816;2023-03-14T11:54:47;99313.00;;;13.63;49.20
64889;BME280;51386;53.082;8.816;2023-03-14T11:57:19;99324.00;;;13.72;48.14
64889;BME280;51386;53.082;8.816;2023-03-14T11:59:52;99335.97;;;13.63;47.78
64889;BME280;51386;53.082;8.816;2023-03-14T12:02:28;99345.72;;;13.50;47.53
64889;BME280;51386;53.082;8.816;2023-03-14T12:05:30;99355.94;;;13.35;48.47
64889;BME280;51386;53.082;8.816;2023-03-14T12:08:25;99365.03;;;13.39;48.95
64889;BME280;51386;53.082;8.816;2023-03-14T12:11:02;99367.34;;;13.47;48.60
64889;BME280;51386;53.082;8.816;2023-03-14T12:13:36;99370.00;;;13.59;48.42
64889;BME280;51386;53.082;8.816;2023-03-14T12:16:07;99375.88;;;13.61;48.36
64889;BME280;51386;53.082;8.816;2023-03-14T12:18:37;99379.19;;;13.56;48.30
64889;BME280;51386;53.082;8.816;2023-03-14T12:21:12;99402.28;;;13.49;48.28
64889;BME280;51386;53.082;8.816;2023-03-14T12:23:44;99416.38;;;13.43;48.36
64889;BME280;51386;53.082;8.816;2023-03-14T12:26:20;99432.59;;;13.35;48.61
64889;BME280;51386;53.082;8.816;2023-03-14T12:28:51;99437.72;;;13.30;48.89
64889;BME280;51386;53.082;8.816;2023-03-14T12:31:41;99440.81;;;13.27;48.90
64889;BME280;51386;53.082;8.816;2023-03-14T12:34:32;99453.59;;;13.30;48.76
64889;BME280;51386;53.082;8.816;2023-03-14T12:37:16;99464.69;;;13.50;47.42
64889;BME280;51386;53.082;8.816;2023-03-14T12:39:58;99457.69;;;13.97;45.57
64889;BME280;51386;53.082;8.816;2023-03-14T12:42:53;99470.25;;;14.25;42.55
64889;BME280;51386;53.082;8.816;2023-03-14T12:45:27;99477.41;;;14.36;41.69
64889;BME280;51386;53.082;8.816;2023-03-14T12:48:10;99490.53;;;14.31;38.85
64889;BME280;51386;53.082;8.816;2023-03-14T12:50:43;99495.09;;;14.24;39.52
64889;BME280;51386;53.082;8.816;2023-03-14T12:53:54;99501.75;;;14.15;39.31
64889;BME280;51386;53.082;8.816;2023-03-14T12:56:39;99503.69;;;14.08;39.44
64889;BME280;51386;53.082;8.816;2023-03-14T12:59:33;99506.44;;;13.90;37.95
64889;BME280;51386;53.082;8.816;2023-03-14T13:02:17;99522.16;;;13.85;36.79
64889;BME280;51386;53.082;8.816;2023-03-14T13:04:50;99532.22;;;13.94;37.64
64889;BME280;51386;53.082;8.816;2023-03-14T13:08:03;99547.97;;;14.01;36.73
64889;BME280;51386;53.082;8.816;2023-03-14T13:10:42;99556.19;;;14.22;36.26
64889;BME280;51386;53.082;8.816;2023-03-14T13:13:19;99562.59;;;14.45;35.55
64889;BME280;51386;53.082;8.816;2023-03-14T13:15:54;99563.06;;;14.53;35.91
64889;BME280;51386;53.082;8.816;2023-03-14T13:18:30;99574.91;;;14.51;35.80
64889;BME280;51386;53.082;8.816;2023-03-14T13:21:05;99579.19;;;14.40;34.94